KRHV

Reid-Hillview of Santa Clara County Airport

San Jose, California, USA
METAR KRHV 210450Z 32004KT 10SM SKC 17/14 A2991 RMK LAST
Observed Flight Rules
Aug-21 @ 04:50 UTC (9 hours ago) Visual Flight Rules
Wind Visibility Clouds
320° at 4 knots 10 miles
  • Clear skies
Temperatures Readings
Current 17°C / 63°F
Dewpoint 14°C / 57°F
Humidity 83%
Altimeter 29.91" Hg
Pressure 1013 hPa
Elevation 41
METAR KRHV 210450Z 32004KT 10SM SKC 17/14 A2991 RMK LAST
Observed Flight Rules
Aug-21 @ 04:50 UTC
(9 hours ago)
VFR
Wind Visibility
320° at 4 knots 10 miles
Clouds
  • Clear skies
Temperature Dewpoint
17°C / 63°F 14°C / 57°F
Humidity Altimeter Pressure
83% 29.91" Hg 1013 hPa